createdAt,value
2018-07-16T00:00:46.894Z,5.62
2018-07-16T00:03:14.472Z,6.80
2018-07-16T00:05:41.929Z,6.37
2018-07-16T00:08:09.388Z,9.05
2018-07-16T00:10:36.843Z,10.90
2018-07-16T00:13:04.305Z,6.68
2018-07-16T00:15:31.778Z,6.07
2018-07-16T00:17:59.244Z,7.03
2018-07-16T00:20:26.797Z,5.03
2018-07-16T00:22:54.369Z,8.65
2018-07-16T00:25:21.864Z,8.73
2018-07-16T00:27:49.337Z,5.50
2018-07-16T00:30:16.789Z,5.00
2018-07-16T00:32:44.194Z,4.30
2018-07-16T00:35:11.655Z,7.45
2018-07-16T00:37:39.105Z,6.93
2018-07-16T00:40:06.585Z,6.45
2018-07-16T00:42:33.997Z,6.40
2018-07-16T00:45:01.457Z,7.93
2018-07-16T00:47:28.926Z,4.95
2018-07-16T00:49:56.408Z,7.37
2018-07-16T00:52:23.864Z,5.12
2018-07-16T00:54:51.356Z,7.53
2018-07-16T00:57:18.808Z,7.90
2018-07-16T00:59:46.205Z,7.10
2018-07-16T01:02:13.606Z,6.87
2018-07-16T01:04:41.048Z,7.47
2018-07-16T01:07:08.477Z,7.20
2018-07-16T01:09:35.952Z,10.05
2018-07-16T01:12:03.412Z,9.30
2018-07-16T01:14:30.898Z,6.25
2018-07-16T01:16:58.347Z,5.12
2018-07-16T01:19:25.743Z,9.48
2018-07-16T01:21:53.216Z,5.18
2018-07-16T01:24:20.664Z,6.28
2018-07-16T01:26:48.144Z,6.10
2018-07-16T01:29:15.579Z,6.32
2018-07-16T01:31:43.015Z,5.80
2018-07-16T01:34:10.451Z,7.15
2018-07-16T01:36:37.948Z,6.03
2018-07-16T01:39:05.343Z,7.10
2018-07-16T01:41:32.816Z,9.60
2018-07-16T01:44:00.247Z,3.90
2018-07-16T01:46:27.733Z,5.75
2018-07-16T01:48:55.177Z,4.82
2018-07-16T01:51:22.627Z,6.95
2018-07-16T01:53:50.014Z,5.12
2018-07-16T01:56:17.461Z,7.97
2018-07-16T01:58:44.895Z,7.35
2018-07-16T02:01:12.372Z,6.35
2018-07-16T02:03:40.022Z,5.65
2018-07-16T02:06:07.468Z,5.85
2018-07-16T02:08:34.935Z,5.43
2018-07-16T02:11:02.441Z,5.25
2018-07-16T02:13:29.845Z,5.05
2018-07-16T02:15:57.287Z,4.37
2018-07-16T02:18:24.726Z,4.45
2018-07-16T02:20:52.210Z,7.18
2018-07-16T02:23:19.622Z,6.25
2018-07-16T02:25:47.129Z,5.62
2018-07-16T02:28:14.659Z,4.15
2018-07-16T02:30:42.108Z,7.95
2018-07-16T02:33:09.506Z,6.80
2018-07-16T02:35:36.934Z,6.97
2018-07-16T02:38:04.503Z,9.65
2018-07-16T02:40:31.948Z,5.37
2018-07-16T02:42:59.537Z,5.68
2018-07-16T02:45:26.916Z,6.72
2018-07-16T02:47:54.342Z,6.75
2018-07-16T02:50:21.822Z,6.60
2018-07-16T02:52:49.337Z,4.68
2018-07-16T02:55:16.810Z,7.32
2018-07-16T02:57:44.223Z,5.53
2018-07-16T03:00:11.718Z,5.20
2018-07-16T03:02:39.155Z,9.32
2018-07-16T03:05:06.647Z,10.45
2018-07-16T03:07:34.227Z,7.00
2018-07-16T03:10:01.640Z,12.65
2018-07-16T03:12:29.245Z,6.30
2018-07-16T03:14:56.654Z,6.85
2018-07-16T03:17:24.143Z,16.35
2018-07-16T03:19:51.544Z,6.40
2018-07-16T03:22:19.252Z,5.68
2018-07-16T03:24:46.680Z,6.57
2018-07-16T03:27:14.105Z,8.88
2018-07-16T03:29:41.539Z,12.50
2018-07-16T03:32:08.948Z,6.40
2018-07-16T03:34:36.420Z,8.02
2018-07-16T03:37:03.827Z,7.40
2018-07-16T03:39:31.255Z,7.12
2018-07-16T03:41:58.737Z,8.70
2018-07-16T03:44:26.165Z,8.82
2018-07-16T03:46:53.634Z,9.25
2018-07-16T03:49:21.061Z,6.10
2018-07-16T03:51:48.499Z,7.20
2018-07-16T03:54:15.999Z,6.53
2018-07-16T03:56:43.440Z,10.55
2018-07-16T03:59:11.014Z,8.18
2018-07-16T04:01:38.756Z,12.68
2018-07-16T04:04:06.281Z,13.77
2018-07-16T04:06:33.832Z,6.70
2018-07-16T04:09:01.270Z,8.18
2018-07-16T04:11:28.781Z,10.90
2018-07-16T04:13:56.207Z,7.75
2018-07-16T04:16:23.605Z,7.03
2018-07-16T04:18:51.053Z,5.82
2018-07-16T04:21:18.477Z,7.45
2018-07-16T04:23:46.041Z,6.85
2018-07-16T04:26:13.600Z,6.45
2018-07-16T04:28:41.070Z,10.98
2018-07-16T04:31:08.529Z,7.20
2018-07-16T04:33:36.008Z,6.00
2018-07-16T04:36:03.517Z,5.87
2018-07-16T04:38:31.070Z,9.45
2018-07-16T04:40:58.592Z,9.48
2018-07-16T04:43:26.027Z,6.22
2018-07-16T04:45:53.508Z,8.40
2018-07-16T04:48:20.927Z,7.30
2018-07-16T04:50:48.347Z,7.90
2018-07-16T04:53:15.795Z,6.57
2018-07-16T04:55:43.278Z,9.38
2018-07-16T04:58:10.776Z,7.28
2018-07-16T05:00:38.178Z,12.77
2018-07-16T05:03:05.631Z,9.13
2018-07-16T05:05:32.999Z,6.75
2018-07-16T05:08:00.484Z,7.82
2018-07-16T05:10:27.897Z,14.07
2018-07-16T05:12:55.427Z,8.10
2018-07-16T05:15:23.120Z,6.62
2018-07-16T05:17:50.606Z,6.50
2018-07-16T05:20:18.059Z,12.93
2018-07-16T05:22:45.528Z,5.15
2018-07-16T05:25:13.037Z,12.55
2018-07-16T05:27:40.477Z,7.12
2018-07-16T05:30:08.064Z,11.68
2018-07-16T05:32:35.782Z,17.50
2018-07-16T05:35:03.191Z,9.60
2018-07-16T05:37:30.654Z,7.80
2018-07-16T05:39:58.136Z,7.30
2018-07-16T05:42:25.597Z,10.60
2018-07-16T05:44:53.098Z,9.57
2018-07-16T05:47:20.543Z,9.40
2018-07-16T05:49:48.043Z,8.75
2018-07-16T05:52:15.462Z,13.77
2018-07-16T05:54:42.916Z,9.70
2018-07-16T05:57:10.310Z,8.32
2018-07-16T05:59:37.770Z,12.40
2018-07-16T06:02:05.185Z,21.48
2018-07-16T06:04:32.625Z,14.55
2018-07-16T06:07:00.814Z,11.02
2018-07-16T06:09:28.252Z,14.80
2018-07-16T06:11:55.729Z,9.40
2018-07-16T06:14:23.253Z,13.75
2018-07-16T06:16:50.717Z,12.82
2018-07-16T06:19:18.101Z,18.37
2018-07-16T06:21:45.620Z,14.85
2018-07-16T06:24:13.139Z,11.55
2018-07-16T06:26:40.669Z,11.52
2018-07-16T06:29:08.155Z,9.13
2018-07-16T06:31:35.611Z,12.63
2018-07-16T06:34:03.058Z,9.00
2018-07-16T06:36:30.520Z,16.08
2018-07-16T06:38:58.302Z,10.82
2018-07-16T06:41:26.271Z,13.02
2018-07-16T06:43:53.284Z,11.18
2018-07-16T06:46:20.744Z,15.45
2018-07-16T06:48:48.372Z,13.32
2018-07-16T06:51:15.946Z,12.52
2018-07-16T06:53:43.397Z,11.30
2018-07-16T06:56:10.947Z,7.62
2018-07-16T06:58:38.419Z,18.58
2018-07-16T07:01:05.865Z,10.07
2018-07-16T07:03:33.332Z,8.10
2018-07-16T07:06:00.782Z,5.65
2018-07-16T07:08:28.260Z,11.45
2018-07-16T07:10:55.731Z,7.62
2018-07-16T07:13:23.132Z,8.60
2018-07-16T07:15:50.647Z,9.93
2018-07-16T07:18:18.235Z,6.53
2018-07-16T07:20:45.640Z,7.45
2018-07-16T07:23:13.104Z,7.43
2018-07-16T07:25:40.659Z,12.37
2018-07-16T07:28:08.177Z,8.15
2018-07-16T07:30:35.635Z,9.98
2018-07-16T07:33:03.208Z,7.90
2018-07-16T07:35:30.815Z,15.45
2018-07-16T07:37:58.245Z,11.27
2018-07-16T07:40:25.734Z,12.23
2018-07-16T07:42:53.167Z,11.05
2018-07-16T07:45:20.577Z,9.68
2018-07-16T07:47:47.979Z,7.60
2018-07-16T07:50:15.576Z,7.35
2018-07-16T07:52:43.093Z,9.25
2018-07-16T07:55:11.743Z,8.75
2018-07-16T07:57:38.968Z,7.05
2018-07-16T08:00:06.457Z,8.38
2018-07-16T08:02:33.982Z,7.53
2018-07-16T08:05:02.645Z,7.50
2018-07-16T08:07:30.172Z,6.35
2018-07-16T08:09:57.652Z,9.95
2018-07-16T08:12:25.093Z,8.57
2018-07-16T08:14:52.636Z,8.27
2018-07-16T08:17:20.107Z,6.35
2018-07-16T08:19:47.645Z,7.32
2018-07-16T08:22:15.238Z,7.30
2018-07-16T08:24:42.703Z,6.43
2018-07-16T08:27:10.148Z,8.35
2018-07-16T08:29:37.778Z,9.32
2018-07-16T08:32:05.276Z,10.07
2018-07-16T08:34:32.738Z,12.50
2018-07-16T08:37:00.230Z,8.05
2018-07-16T08:39:27.715Z,5.53
2018-07-16T08:41:55.285Z,7.47
2018-07-16T08:44:22.954Z,11.23
2018-07-16T08:46:50.473Z,8.95
2018-07-16T08:49:17.952Z,8.93
2018-07-16T08:51:45.415Z,6.75
2018-07-16T08:54:12.847Z,7.40
2018-07-16T08:56:40.355Z,10.30
2018-07-16T08:59:08.195Z,10.32
2018-07-16T09:01:35.854Z,6.80
2018-07-16T09:04:03.430Z,8.40
2018-07-16T09:06:30.937Z,8.70
2018-07-16T09:08:58.445Z,6.57
2018-07-16T09:11:25.847Z,8.40
2018-07-16T09:13:53.270Z,9.18
2018-07-16T09:16:20.721Z,9.43
2018-07-16T09:18:48.173Z,7.55
2018-07-16T09:21:15.608Z,7.87
2018-07-16T09:23:43.284Z,7.82
2018-07-16T09:26:10.719Z,8.90
2018-07-16T09:28:38.175Z,8.13
2018-07-16T09:31:06.790Z,6.90
2018-07-16T09:33:34.336Z,11.60
2018-07-16T09:36:01.811Z,6.45
2018-07-16T09:38:29.253Z,7.10
2018-07-16T09:45:50.858Z,7.40
2018-07-16T09:55:39.323Z,7.18
2018-07-16T09:58:06.921Z,6.12
2018-07-16T10:00:34.394Z,10.90
2018-07-16T10:03:01.828Z,8.50
2018-07-16T10:05:29.263Z,9.00
2018-07-16T10:07:57.068Z,6.43
2018-07-16T10:10:24.885Z,5.53
2018-07-16T10:12:52.382Z,7.00
2018-07-16T10:15:19.875Z,6.35
2018-07-16T10:17:48.005Z,12.63
2018-07-16T10:20:15.515Z,6.25
2018-07-16T10:22:43.070Z,7.60
2018-07-16T10:25:10.607Z,12.07
2018-07-16T10:27:38.164Z,7.00
2018-07-16T10:30:05.631Z,7.10
2018-07-16T10:32:33.100Z,6.93
2018-07-16T10:35:00.609Z,6.57
2018-07-16T10:37:28.150Z,5.78
2018-07-16T10:39:55.647Z,7.07
2018-07-16T10:42:23.152Z,11.10
2018-07-16T10:44:50.861Z,4.97
2018-07-16T11:14:16.172Z,5.80
2018-07-16T11:28:59.104Z,5.93
2018-07-16T11:31:26.579Z,9.05
2018-07-16T11:33:54.011Z,6.53
2018-07-16T11:36:21.524Z,6.85
2018-07-16T11:38:48.957Z,8.02
2018-07-16T11:43:43.378Z,15.18
2018-07-16T11:46:10.895Z,8.77
2018-07-16T11:48:38.403Z,5.80
2018-07-16T11:51:05.910Z,7.87
2018-07-16T11:53:33.376Z,7.00
2018-07-16T11:56:00.888Z,7.25
2018-07-16T11:58:28.303Z,7.15
2018-07-16T12:03:29.876Z,5.00
2018-07-16T12:05:57.232Z,7.05
2018-07-16T12:08:24.678Z,6.37
2018-07-16T12:10:52.275Z,7.47
2018-07-16T12:13:19.755Z,10.30
2018-07-16T12:15:47.233Z,7.35
2018-07-16T12:18:14.778Z,5.95
2018-07-16T12:20:42.210Z,8.57
2018-07-16T12:23:09.653Z,6.30
2018-07-16T12:25:37.053Z,9.13
2018-07-16T12:28:04.527Z,8.90
2018-07-16T12:30:31.969Z,5.87
2018-07-16T12:32:59.441Z,7.10
2018-07-16T12:35:26.936Z,7.00
2018-07-16T12:37:54.453Z,6.60
2018-07-16T12:40:21.862Z,8.88
2018-07-16T12:42:49.411Z,7.40
2018-07-16T12:45:16.935Z,9.45
2018-07-16T12:47:44.361Z,9.38
2018-07-16T12:50:11.922Z,11.18
2018-07-16T12:52:39.404Z,11.77
2018-07-16T12:55:06.926Z,11.65
2018-07-16T12:57:34.422Z,13.55
2018-07-16T13:00:02.096Z,16.35
2018-07-16T13:02:29.613Z,15.90
2018-07-16T13:04:57.115Z,19.58
2018-07-16T13:07:24.661Z,16.15
2018-07-16T13:09:52.083Z,13.10
2018-07-16T13:12:19.572Z,26.62
2018-07-16T13:14:47.057Z,25.73
2018-07-16T13:17:14.627Z,23.17
2018-07-16T13:19:42.066Z,28.35
2018-07-16T13:22:09.494Z,26.37
2018-07-16T13:24:37.024Z,26.60
2018-07-16T13:27:04.561Z,32.53
2018-07-16T13:32:05.856Z,35.78
2018-07-16T13:34:33.405Z,34.50
2018-07-16T13:37:00.929Z,31.65
2018-07-16T13:39:28.548Z,24.90
2018-07-16T13:41:55.991Z,29.87
2018-07-16T13:44:23.411Z,27.83
2018-07-16T13:46:50.934Z,32.33
2018-07-16T13:49:18.313Z,25.65
2018-07-16T13:51:45.804Z,29.27
2018-07-16T13:54:13.272Z,30.00
2018-07-16T13:56:40.755Z,28.87
2018-07-16T13:59:08.183Z,35.10
2018-07-16T14:01:35.672Z,32.05
2018-07-16T14:04:03.120Z,29.77
2018-07-16T14:06:30.547Z,37.95
2018-07-16T14:08:57.988Z,35.83
2018-07-16T14:11:25.499Z,30.67
2018-07-16T14:13:52.931Z,32.95
2018-07-16T14:16:20.440Z,26.42
2018-07-16T14:18:48.178Z,29.85
2018-07-16T14:21:15.688Z,31.83
2018-07-16T14:23:43.104Z,33.42
2018-07-16T14:26:10.548Z,36.03
2018-07-16T14:28:38.086Z,37.10
2018-07-16T14:31:05.603Z,29.12
2018-07-16T14:33:33.043Z,33.15
2018-07-16T14:36:00.503Z,35.92
2018-07-16T14:38:27.958Z,34.10
2018-07-16T14:40:55.463Z,31.58
2018-07-16T14:43:23.513Z,35.05
2018-07-16T14:45:51.075Z,32.30
2018-07-16T14:48:18.907Z,42.00
2018-07-16T14:50:46.347Z,8.07
2018-07-16T14:53:13.807Z,6.57
2018-07-16T14:55:41.210Z,8.95
2018-07-16T14:58:08.718Z,7.15
2018-07-16T15:00:36.210Z,9.15
2018-07-16T15:03:04.321Z,8.30
2018-07-16T15:05:32.462Z,7.72
2018-07-16T15:07:59.926Z,7.20
2018-07-16T15:10:27.339Z,7.25
2018-07-16T15:12:54.874Z,8.70
2018-07-16T15:15:22.332Z,7.25
2018-07-16T15:17:50.089Z,7.50
2018-07-16T15:20:17.751Z,8.15
2018-07-16T15:22:45.239Z,6.70
2018-07-16T15:25:12.643Z,7.20
2018-07-16T15:27:40.128Z,6.68
2018-07-16T15:30:08.360Z,7.57
2018-07-16T15:32:35.991Z,6.60
2018-07-16T15:35:03.446Z,6.62
2018-07-16T15:37:30.928Z,6.30
2018-07-16T15:39:58.386Z,15.40
2018-07-16T15:42:25.867Z,6.43
2018-07-16T15:44:53.499Z,6.68
2018-07-16T15:47:20.980Z,5.22
2018-07-16T15:49:48.450Z,5.55
2018-07-16T15:52:15.908Z,6.50
2018-07-16T15:54:43.444Z,6.87
2018-07-16T15:59:44.599Z,8.15
2018-07-16T16:02:12.057Z,6.75
2018-07-16T16:04:39.534Z,6.90
2018-07-16T16:07:06.964Z,6.18
2018-07-16T16:09:34.377Z,9.13
2018-07-16T16:12:02.112Z,6.47
2018-07-16T16:14:29.506Z,8.48
2018-07-16T16:16:57.008Z,8.15
2018-07-16T16:19:24.437Z,8.40
2018-07-16T16:21:51.874Z,6.55
2018-07-16T16:24:19.347Z,7.15
2018-07-16T16:26:46.807Z,7.22
2018-07-16T16:29:14.321Z,7.60
2018-07-16T16:31:41.755Z,6.25
2018-07-16T16:34:09.184Z,7.28
2018-07-16T16:36:36.723Z,5.90
2018-07-16T16:39:04.130Z,6.75
2018-07-16T16:41:31.540Z,6.25
2018-07-16T16:43:59.011Z,6.30
2018-07-16T16:46:26.489Z,6.82
2018-07-16T16:48:53.950Z,6.22
2018-07-16T16:51:21.407Z,6.18
2018-07-16T16:53:48.869Z,6.80
2018-07-16T16:56:16.353Z,7.90
2018-07-16T16:58:43.857Z,6.28
2018-07-16T17:01:11.307Z,7.82
2018-07-16T17:03:38.749Z,5.87
2018-07-16T17:06:06.275Z,10.85
2018-07-16T17:08:33.705Z,5.22
2018-07-16T17:11:01.155Z,5.55
2018-07-16T17:13:28.628Z,8.00
2018-07-16T17:15:56.124Z,5.90
2018-07-16T17:18:23.706Z,6.57
2018-07-16T17:20:51.178Z,5.12
2018-07-16T17:23:18.847Z,8.65
2018-07-16T17:25:46.286Z,6.22
2018-07-16T17:28:13.690Z,6.55
2018-07-16T17:30:41.186Z,8.70
2018-07-16T17:33:08.662Z,9.45
2018-07-16T17:35:36.091Z,6.90
2018-07-16T17:38:03.523Z,6.85
2018-07-16T17:40:31.024Z,7.20
2018-07-16T17:42:58.401Z,6.93
2018-07-16T17:45:25.956Z,16.40
2018-07-16T17:47:53.419Z,8.40
2018-07-16T17:50:20.829Z,10.88
2018-07-16T17:52:48.346Z,6.40
2018-07-16T17:55:15.965Z,6.72
2018-07-16T17:57:43.473Z,7.20
2018-07-16T18:00:11.108Z,7.05
2018-07-16T18:02:38.544Z,7.05
2018-07-16T18:05:06.016Z,8.35
2018-07-16T18:07:33.527Z,11.38
2018-07-16T18:10:00.960Z,8.68
2018-07-16T18:12:28.491Z,6.97
2018-07-16T18:14:55.929Z,8.35
2018-07-16T18:17:23.377Z,5.90
2018-07-16T18:19:50.920Z,7.82
2018-07-16T18:22:18.424Z,7.28
2018-07-16T18:24:45.897Z,8.02
2018-07-16T18:27:14.849Z,6.40
2018-07-16T18:29:42.341Z,9.02
2018-07-16T18:32:09.819Z,8.63
2018-07-16T18:34:37.351Z,9.02
2018-07-16T18:37:04.814Z,8.15
2018-07-16T18:39:32.258Z,5.60
2018-07-16T18:41:59.693Z,6.05
2018-07-16T18:44:27.267Z,6.65
2018-07-16T18:46:54.722Z,6.00
2018-07-16T18:49:22.431Z,5.87
2018-07-16T18:51:49.892Z,7.15
2018-07-16T18:54:17.342Z,7.03
2018-07-16T18:56:44.924Z,6.15
2018-07-16T18:59:12.516Z,8.10
2018-07-16T19:01:40.019Z,9.70
2018-07-16T19:04:07.598Z,6.45
2018-07-16T19:06:35.187Z,7.82
2018-07-16T19:09:02.730Z,12.27
2018-07-16T19:11:30.220Z,6.90
2018-07-16T19:13:57.628Z,6.35
2018-07-16T19:16:25.153Z,7.25
2018-07-16T19:18:52.983Z,6.25
2018-07-16T19:21:20.412Z,7.50
2018-07-16T19:23:47.903Z,7.80
2018-07-16T19:26:15.488Z,7.18
2018-07-16T19:28:42.965Z,9.30
2018-07-16T19:31:10.549Z,12.82
2018-07-16T19:33:38.101Z,8.55
2018-07-16T19:36:05.564Z,13.35
2018-07-16T19:38:33.142Z,11.02
2018-07-16T19:41:00.628Z,9.63
2018-07-16T19:43:28.060Z,9.38
2018-07-16T19:45:55.546Z,7.30
2018-07-16T19:48:23.194Z,8.00
2018-07-16T19:50:50.656Z,6.68
2018-07-16T19:53:18.491Z,6.28
2018-07-16T19:55:46.103Z,6.62
2018-07-16T19:58:13.631Z,8.15
2018-07-16T20:00:41.158Z,6.95
2018-07-16T20:03:08.600Z,6.53
2018-07-16T20:05:36.061Z,9.55
2018-07-16T20:08:03.644Z,6.80
2018-07-16T20:10:31.108Z,9.95
2018-07-16T20:12:58.594Z,6.22
2018-07-16T20:15:26.168Z,6.62
2018-07-16T20:17:53.690Z,7.85
2018-07-16T20:20:21.249Z,7.62
2018-07-16T20:22:48.789Z,7.65
2018-07-16T20:25:16.247Z,5.10
2018-07-16T20:27:43.755Z,7.22
2018-07-16T20:30:12.005Z,6.12
2018-07-16T20:32:39.569Z,6.50
2018-07-16T20:35:07.048Z,7.85
2018-07-16T20:37:34.533Z,7.68
2018-07-16T20:40:02.027Z,37.00
2018-07-16T20:42:29.386Z,32.22
2018-07-16T20:44:56.827Z,29.77
2018-07-16T20:47:24.257Z,37.63
2018-07-16T20:49:51.711Z,38.88
2018-07-16T20:52:19.301Z,21.65
2018-07-16T20:54:46.701Z,7.85
2018-07-16T20:57:14.250Z,5.93
2018-07-16T20:59:41.736Z,6.53
2018-07-16T21:02:10.888Z,7.57
2018-07-16T21:04:38.347Z,9.02
2018-07-16T21:07:05.779Z,11.25
2018-07-16T21:09:33.261Z,9.05
2018-07-16T21:12:00.726Z,10.00
2018-07-16T21:14:28.207Z,6.32
2018-07-16T21:16:55.761Z,7.50
2018-07-16T21:19:23.165Z,6.57
2018-07-16T21:21:50.635Z,5.95
2018-07-16T21:24:18.096Z,6.07
2018-07-16T21:26:45.514Z,7.32
2018-07-16T21:29:12.996Z,6.32
2018-07-16T21:31:40.511Z,5.53
2018-07-16T21:34:07.980Z,12.15
2018-07-16T21:36:35.474Z,7.75
2018-07-16T21:39:02.921Z,6.43
2018-07-16T21:41:30.378Z,7.37
2018-07-16T21:43:57.881Z,6.07
2018-07-16T21:46:25.330Z,6.25
2018-07-16T21:48:52.763Z,5.53
2018-07-16T21:51:20.204Z,5.50
2018-07-16T21:53:47.711Z,5.18
2018-07-16T21:56:15.180Z,4.75
2018-07-16T21:58:42.592Z,5.53
2018-07-16T22:01:10.027Z,4.75
2018-07-16T22:03:37.445Z,4.57
2018-07-16T22:06:04.860Z,8.80
2018-07-16T22:08:32.393Z,7.60
2018-07-16T22:10:59.864Z,5.70
2018-07-16T22:13:27.294Z,7.68
2018-07-16T22:15:54.715Z,5.40
2018-07-16T22:18:22.165Z,7.50
2018-07-16T22:20:49.682Z,6.53
2018-07-16T22:23:17.115Z,4.60
2018-07-16T22:25:44.624Z,7.05
2018-07-16T22:28:12.089Z,5.47
2018-07-16T22:30:39.507Z,9.23
2018-07-16T22:33:06.908Z,7.90
2018-07-16T22:35:34.470Z,8.30
2018-07-16T22:38:01.903Z,5.90
2018-07-16T22:40:29.370Z,6.25
2018-07-16T22:42:56.790Z,6.65
2018-07-16T22:45:24.250Z,5.40
2018-07-16T22:47:51.683Z,5.20
2018-07-16T22:50:19.136Z,5.30
2018-07-16T22:52:46.557Z,4.50
2018-07-16T22:55:13.986Z,5.55
2018-07-16T22:57:41.415Z,5.80
2018-07-16T23:00:09.000Z,6.10
2018-07-16T23:02:36.513Z,8.15
2018-07-16T23:05:03.950Z,6.45
2018-07-16T23:07:31.406Z,5.10
2018-07-16T23:09:58.812Z,5.43
2018-07-16T23:12:27.343Z,10.32
2018-07-16T23:14:54.791Z,6.25
2018-07-16T23:17:22.190Z,6.30
2018-07-16T23:19:49.655Z,7.65
2018-07-16T23:22:17.066Z,8.48
2018-07-16T23:24:44.514Z,10.40
2018-07-16T23:27:11.995Z,8.23
2018-07-16T23:29:39.476Z,7.78
2018-07-16T23:32:07.038Z,8.05
2018-07-16T23:34:34.537Z,7.75
2018-07-16T23:37:02.037Z,7.60
2018-07-16T23:39:29.527Z,5.30
2018-07-16T23:41:57.031Z,6.75
2018-07-16T23:44:24.522Z,4.82
2018-07-16T23:46:51.950Z,6.55
2018-07-16T23:49:19.415Z,6.25
2018-07-16T23:51:46.870Z,6.60
2018-07-16T23:54:14.520Z,7.12
2018-07-16T23:56:42.000Z,6.18
2018-07-16T23:59:09.453Z,5.82
